This is the latest recevied weather packets stored in our database for station/object SV9TNF-1. If no packets are shown the sender has not sent any weather packets the latest 10 day(s).
| Time | Temp. | Humidity | Pressure | Rain* | Wind** | Luminosity | Snow |
|---|---|---|---|---|---|---|---|
| 1777548892 | 25° C | 46% | 1003.1 hPa | 0 mm | 8.94 m/s, 332° | - | - |
| 1777548591 | 26.67° C | 41% | 1003.1 hPa | 0 mm | 1.34 m/s, 297° | - | - |
| 1777548291 | 27.78° C | 39% | 1003.1 hPa | 0 mm | 0.89 m/s, 31° | - | - |
| 1777547991 | 26.67° C | 39% | 1003.1 hPa | 0 mm | 0.45 m/s, 149° | - | - |
| 1777547691 | 25.56° C | 40% | 1003.1 hPa | 0 mm | 3.58 m/s, 143° | - | - |
| 1777547391 | 27.78° C | 36% | 1003.4 hPa | 0 mm | 0.45 m/s, 131° | - | - |
| 1777547091 | 27.78° C | 36% | 1003.4 hPa | 0 mm | 4.02 m/s, 141° | - | - |
| 1777546791 | 26.67° C | 37% | 1003.4 hPa | 0 mm | 4.47 m/s, 124° | - | - |
| 1777546491 | 26.11° C | 36% | 1003.4 hPa | 0 mm | 4.92 m/s, 84° | - | - |
| 1777546191 | 27.78° C | 37% | 1003.4 hPa | 0 mm | 1.79 m/s, 133° | - | - |
| 1777545891 | 28.33° C | 35% | 1003.7 hPa | 0 mm | 2.24 m/s, 138° | - | - |
| 1777545590 | 28.33° C | 33% | 1003.7 hPa | 0 mm | 0.45 m/s, 130° | - | - |
| 1777545290 | 27.78° C | 35% | 1003.7 hPa | 0 mm | 4.47 m/s, 9° | - | - |
| 1777544990 | 28.33° C | 33% | 1003.7 hPa | 0 mm | 1.34 m/s, 144° | - | - |
| 1777544690 | 27.78° C | 36% | 1003.7 hPa | 0 mm | 1.79 m/s, 134° | - | - |
| 1777544390 | 26.67° C | 36% | 1003.7 hPa | 0 mm | 6.26 m/s, 20° | - | - |
| 1777544090 | 27.78° C | 34% | 1003.7 hPa | 0 mm | 2.24 m/s, 145° | - | - |
| 1777543790 | 26.67° C | 35% | 1003.7 hPa | 0 mm | 0.89 m/s, 129° | - | - |
| 1777543490 | 27.78° C | 35% | 1003.7 hPa | 0 mm | 0.89 m/s, 154° | - | - |
| 1777543190 | 26.67° C | 33% | 1003.7 hPa | 0 mm | 2.24 m/s, 132° | - | - |
| 1777542890 | 26.67° C | 31% | 1003.7 hPa | 0 mm | 3.13 m/s, 157° | - | - |
| 1777542590 | 26.67° C | 31% | 1003.7 hPa | 0 mm | 4.92 m/s, 319° | - | - |
| 1777542290 | 28.89° C | 29% | 1003.7 hPa | 0 mm | 1.79 m/s, 63° | - | - |
| 1777541989 | 28.33° C | 29% | 1003.7 hPa | 0 mm | 1.34 m/s, 130° | - | - |
| 1777541689 | 28.33° C | 28% | 1003.7 hPa | 0 mm | 3.13 m/s, 46° | - | - |
* Rain latest hour (hover to see other rain measurements)
** Current wind speed in m/s (hover to see current wind gust speed)